Main page
METAR-TAF:

METAR-TAF

Airports :

Pointe-à-Pitre, Guadeloupe

Pointe-à-Pitre International Airport

latitude: 16-16N, longitude: 061-31W, elevation: 11 m

Current weather observation

The report was made 24 minutes ago, at 16:00 UTC
Wind 13 kt from the East/Southeast
Temperature 29°C
Humidity 70%
Pressure 1016 hPa

METAR: TFFR 251600Z AUTO 12013KT //// R12///// // BKN028/// BKN042/// OVC064/// 29/23 Q1016

Time: 12:24 (16:24 UTC)

Forecast

The report was made 5 hours and 24 minutes ago, at 11:00 UTC
Forecast valid from 25 at 12 UTC to 26 at 12 UTC
Wind 5 kt from the East/Southeast
Visibility 10 km or more
Few clouds at a height of 1300 ft
Broken clouds at a height of 4000 ft
Becoming
from 25 at 12 UTC to 25 at 14 UTC
Wind 15 kt from the East/Southeast
Temporary
from 25 at 12 UTC to 26 at 06 UTC
Visibility: 3000 m
Broken clouds at a height of 1800 ft, Towering cumulus.
rain showers

TAF: TFFR 251100Z 2512/2612 11005KT 9999 FEW013 BKN040 BECMG 2512/2514 12015KT TEMPO 2512/2606 3000 SHRA BKN018TCU

Weather observations and forecasts of more than 4000 airports (METAR and TAF reports).

The available stations are represented by yellow and red dots on the map.

Hover mouse over dot to see the name of the station.

Then click to see weather observations and forecasts.

To change the map : click on the green buttons with a black cross to zoom in, on the green button with a dash to zoom out, or on the green arrows for adjacent maps.


METAR-TAF: